createdAt,value
2018-09-10T00:01:56.116Z,81.90
2018-09-10T00:04:24.549Z,82.20
2018-09-10T00:06:53.209Z,82.60
2018-09-10T00:09:21.686Z,82.90
2018-09-10T00:11:50.124Z,83.00
2018-09-10T00:14:18.546Z,83.90
2018-09-10T00:16:46.989Z,85.20
2018-09-10T00:19:15.413Z,85.00
2018-09-10T00:21:43.874Z,84.60
2018-09-10T00:24:12.305Z,85.60
2018-09-10T00:26:40.783Z,86.10
2018-09-10T00:29:09.205Z,86.10
2018-09-10T00:31:37.689Z,86.00
2018-09-10T00:34:06.121Z,85.60
2018-09-10T00:36:34.601Z,85.00
2018-09-10T00:39:03.102Z,84.40
2018-09-10T00:41:31.561Z,83.70
2018-09-10T00:45:03.399Z,84.10
2018-09-10T00:47:31.857Z,85.40
2018-09-10T00:50:00.305Z,86.60
2018-09-10T00:52:28.767Z,87.80
2018-09-10T00:54:57.190Z,87.90
2018-09-10T00:57:25.653Z,87.70
2018-09-10T00:59:54.437Z,87.20
2018-09-10T01:02:22.919Z,88.70
2018-09-10T01:04:51.341Z,88.20
2018-09-10T01:07:19.814Z,88.40
2018-09-10T01:09:48.273Z,88.30
2018-09-10T01:12:16.774Z,88.20
2018-09-10T01:14:45.192Z,88.80
2018-09-10T01:17:13.649Z,88.80
2018-09-10T01:19:42.070Z,88.70
2018-09-10T01:22:10.535Z,89.00
2018-09-10T01:24:39.008Z,90.10
2018-09-10T01:27:07.429Z,90.50
2018-09-10T01:29:35.880Z,90.60
2018-09-10T01:32:04.348Z,90.40
2018-09-10T01:34:38.232Z,90.30
2018-09-10T01:37:06.672Z,90.40
2018-09-10T01:39:35.153Z,90.20
2018-09-10T01:42:03.587Z,90.40
2018-09-10T01:44:32.253Z,90.50
2018-09-10T01:47:00.673Z,90.80
2018-09-10T01:49:29.109Z,90.80
2018-09-10T01:51:57.572Z,90.70
2018-09-10T01:54:26.022Z,90.90
2018-09-10T01:56:54.498Z,91.10
2018-09-10T01:59:22.949Z,91.50
2018-09-10T02:01:51.412Z,91.50
2018-09-10T02:04:19.837Z,91.10
2018-09-10T02:06:48.309Z,90.90
2018-09-10T02:09:16.776Z,90.70
2018-09-10T02:11:45.201Z,91.00
2018-09-10T02:14:13.658Z,91.00
2018-09-10T02:16:42.076Z,91.30
2018-09-10T02:19:10.514Z,91.30
2018-09-10T02:21:38.964Z,91.20
2018-09-10T02:24:07.588Z,91.20
2018-09-10T02:26:36.033Z,91.20
2018-09-10T02:29:04.504Z,91.60
2018-09-10T02:31:32.918Z,92.00
2018-09-10T02:34:01.418Z,92.10
2018-09-10T02:36:29.837Z,92.10
2018-09-10T02:38:58.261Z,92.50
2018-09-10T02:41:26.721Z,92.70
2018-09-10T02:43:55.153Z,92.70
2018-09-10T02:46:23.678Z,92.60
2018-09-10T02:48:52.102Z,92.60
2018-09-10T02:51:20.551Z,93.00
2018-09-10T02:53:48.981Z,93.60
2018-09-10T02:56:17.449Z,94.60
2018-09-10T02:58:45.877Z,95.70
2018-09-10T03:01:14.330Z,95.60
2018-09-10T03:03:42.754Z,95.60
2018-09-10T03:06:11.213Z,96.10
2018-09-10T03:08:39.633Z,96.30
2018-09-10T03:11:08.151Z,96.30
2018-09-10T03:13:36.694Z,96.00
2018-09-10T03:16:05.106Z,95.70
2018-09-10T03:18:33.533Z,95.00
2018-09-10T03:21:02.238Z,94.50
2018-09-10T03:23:30.657Z,94.20
2018-09-10T03:25:59.203Z,94.20
2018-09-10T03:28:27.630Z,94.90
2018-09-10T03:30:56.165Z,95.10
2018-09-10T03:33:24.708Z,95.20
2018-09-10T03:35:53.117Z,95.10
2018-09-10T03:38:21.579Z,94.70
2018-09-10T03:40:50.013Z,94.80
2018-09-10T03:43:18.468Z,95.90
2018-09-10T03:45:46.888Z,96.20
2018-09-10T03:48:15.423Z,95.60
2018-09-10T03:50:43.850Z,95.60
2018-09-10T03:53:12.305Z,95.30
2018-09-10T03:55:40.721Z,94.90
2018-09-10T03:58:09.418Z,94.40
2018-09-10T04:00:37.870Z,94.00
2018-09-10T04:03:06.323Z,94.60
2018-09-10T04:05:34.761Z,94.40
2018-09-10T04:08:03.641Z,94.10
2018-09-10T04:10:32.090Z,94.40
2018-09-10T04:13:00.530Z,94.00
2018-09-10T04:15:28.969Z,94.00
2018-09-10T04:17:57.416Z,93.90
2018-09-10T04:20:25.860Z,94.00
2018-09-10T04:22:54.277Z,93.80
2018-09-10T04:25:22.787Z,94.00
2018-09-10T04:27:51.250Z,94.00
2018-09-10T04:30:19.693Z,94.40
2018-09-10T04:32:48.161Z,94.90
2018-09-10T04:35:16.617Z,95.20
2018-09-10T04:37:45.089Z,95.90
2018-09-10T04:40:13.530Z,95.90
2018-09-10T04:42:42.042Z,96.00
2018-09-10T04:45:10.539Z,96.10
2018-09-10T04:47:39.013Z,96.50
2018-09-10T04:50:07.445Z,97.10
2018-09-10T04:52:35.897Z,97.00
2018-09-10T04:55:05.009Z,96.80
2018-09-10T04:57:33.437Z,96.50
2018-09-10T05:00:01.902Z,96.50
2018-09-10T05:02:30.330Z,97.10
2018-09-10T05:04:58.835Z,97.50
2018-09-10T05:07:27.305Z,97.70
2018-09-10T05:09:55.829Z,98.30
2018-09-10T05:12:24.268Z,99.00
2018-09-10T05:14:52.694Z,98.80
2018-09-10T05:17:21.209Z,98.50
2018-09-10T05:19:49.759Z,98.30
2018-09-10T05:22:18.231Z,98.70
2018-09-10T05:24:46.644Z,99.30
2018-09-10T05:27:15.065Z,99.80
2018-09-10T05:29:43.584Z,99.90
2018-09-10T05:32:12.192Z,99.90
2018-09-10T05:34:40.677Z,99.90
2018-09-10T05:37:09.123Z,99.90
2018-09-10T05:39:37.534Z,99.90
2018-09-10T05:42:06.010Z,99.90
2018-09-10T05:44:34.445Z,99.90
2018-09-10T05:47:02.935Z,99.90
2018-09-10T05:49:31.589Z,99.90
2018-09-10T05:52:00.097Z,99.90
2018-09-10T05:54:28.557Z,99.90
2018-09-10T05:56:56.993Z,99.90
2018-09-10T05:59:25.465Z,99.90
2018-09-10T06:01:53.938Z,99.90
2018-09-10T06:04:22.370Z,99.90
2018-09-10T06:06:50.859Z,99.90
2018-09-10T06:09:19.328Z,99.90
2018-09-10T06:11:47.797Z,99.90
2018-09-10T06:14:16.214Z,99.90
2018-09-10T06:16:44.757Z,99.90
2018-09-10T06:19:13.138Z,99.90
2018-09-10T06:21:41.641Z,99.90
2018-09-10T06:24:10.121Z,99.00
2018-09-10T06:26:38.578Z,98.40
2018-09-10T06:29:07.009Z,96.80
2018-09-10T06:31:35.493Z,95.90
2018-09-10T06:34:04.076Z,95.10
2018-09-10T06:36:32.560Z,95.00
2018-09-10T06:39:00.962Z,94.10
2018-09-10T06:41:29.373Z,93.70
2018-09-10T06:43:57.829Z,93.30
2018-09-10T06:46:26.320Z,93.50
2018-09-10T06:48:54.743Z,92.80
2018-09-10T06:51:23.237Z,93.00
2018-09-10T06:53:51.681Z,93.90
2018-09-10T06:56:20.153Z,93.70
2018-09-10T06:58:48.585Z,92.70
2018-09-10T07:01:17.057Z,92.40
2018-09-10T07:03:45.522Z,90.50
2018-09-10T07:06:14.233Z,90.30
2018-09-10T07:08:42.657Z,90.40
2018-09-10T07:11:11.120Z,90.10
2018-09-10T07:13:39.570Z,89.60
2018-09-10T07:16:08.036Z,87.60
2018-09-10T07:18:36.610Z,87.50
2018-09-10T07:21:05.066Z,87.10
2018-09-10T07:23:33.472Z,85.40
2018-09-10T07:26:01.991Z,85.60
2018-09-10T07:28:30.454Z,86.00
2018-09-10T07:30:58.885Z,85.90
2018-09-10T07:33:27.401Z,85.50
2018-09-10T07:35:55.831Z,84.00
2018-09-10T07:38:24.285Z,82.00
2018-09-10T07:40:52.742Z,81.60
2018-09-10T07:43:21.219Z,80.20
2018-09-10T07:45:49.635Z,80.00
2018-09-10T07:48:18.113Z,79.00
2018-09-10T07:50:46.541Z,79.50
2018-09-10T07:53:15.014Z,78.70
2018-09-10T07:55:43.455Z,77.90
2018-09-10T07:58:11.878Z,76.30
2018-09-10T08:00:40.311Z,75.80
2018-09-10T08:03:09.065Z,75.30
2018-09-10T08:05:37.404Z,74.60
2018-09-10T08:08:06.120Z,74.00
2018-09-10T08:10:34.638Z,73.90
2018-09-10T08:13:03.285Z,72.80
2018-09-10T08:15:31.753Z,72.00
2018-09-10T08:18:00.179Z,72.00
2018-09-10T08:20:28.637Z,71.90
2018-09-10T08:22:57.056Z,71.80
2018-09-10T08:25:25.529Z,71.30
2018-09-10T08:27:53.961Z,70.80
2018-09-10T08:30:22.427Z,69.30
2018-09-10T08:32:50.855Z,68.80
2018-09-10T08:35:19.360Z,68.10
2018-09-10T08:37:47.826Z,68.30
2018-09-10T08:40:16.374Z,68.30
2018-09-10T08:42:44.863Z,67.10
2018-09-10T08:45:13.404Z,66.20
2018-09-10T08:47:41.883Z,65.30
2018-09-10T08:50:10.413Z,65.50
2018-09-10T08:52:39.128Z,64.00
2018-09-10T08:55:07.842Z,62.20
2018-09-10T08:57:36.231Z,63.00
2018-09-10T09:00:04.781Z,63.90
2018-09-10T09:02:33.216Z,62.90
2018-09-10T09:05:02.049Z,62.30
2018-09-10T09:07:30.735Z,62.50
2018-09-10T09:09:59.142Z,62.40
2018-09-10T09:12:27.645Z,61.60
2018-09-10T09:14:56.052Z,61.10
2018-09-10T09:17:24.536Z,61.60
2018-09-10T09:19:53.011Z,61.40
2018-09-10T09:22:21.721Z,59.70
2018-09-10T09:24:50.123Z,59.20
2018-09-10T09:27:18.941Z,58.30
2018-09-10T09:29:47.397Z,57.90
2018-09-10T09:32:15.848Z,57.90
2018-09-10T09:34:49.746Z,57.80
2018-09-10T09:37:23.770Z,56.80
2018-09-10T09:39:57.561Z,56.80
2018-09-10T09:42:31.249Z,56.50
2018-09-10T09:45:05.115Z,56.60
2018-09-10T09:47:33.570Z,56.30
2018-09-10T09:50:02.077Z,55.20
2018-09-10T09:52:30.489Z,55.70
2018-09-10T09:54:59.441Z,55.50
2018-09-10T09:57:27.916Z,53.90
2018-09-10T09:59:56.333Z,54.30
2018-09-10T10:02:30.201Z,54.60
2018-09-10T10:04:59.097Z,54.00
2018-09-10T10:07:27.833Z,53.00
2018-09-10T10:09:56.245Z,53.30
2018-09-10T10:12:24.905Z,53.10
2018-09-10T10:14:53.207Z,52.40
2018-09-10T10:17:22.005Z,52.00
2018-09-10T10:19:51.473Z,50.80
2018-09-10T10:22:19.939Z,49.80
2018-09-10T10:24:48.369Z,49.40
2018-09-10T10:27:16.860Z,49.40
2018-09-10T10:29:45.305Z,48.70
2018-09-10T10:32:13.753Z,48.50
2018-09-10T10:34:42.173Z,48.60
2018-09-10T10:37:10.699Z,47.60
2018-09-10T10:39:39.117Z,48.60
2018-09-10T10:42:07.569Z,47.40
2018-09-10T10:44:35.989Z,46.20
2018-09-10T10:47:04.712Z,46.40
2018-09-10T10:49:33.142Z,46.10
2018-09-10T10:52:01.657Z,46.00
2018-09-10T10:54:30.114Z,46.30
2018-09-10T10:56:58.534Z,45.60
2018-09-10T10:59:26.982Z,44.50
2018-09-10T11:01:55.386Z,44.20
2018-09-10T11:04:23.853Z,43.20
2018-09-10T11:06:52.311Z,43.30
2018-09-10T11:09:20.818Z,43.60
2018-09-10T11:11:49.366Z,44.00
2018-09-10T11:14:17.816Z,43.60
2018-09-10T11:16:46.253Z,43.50
2018-09-10T11:19:14.706Z,42.90
2018-09-10T11:21:43.158Z,43.70
2018-09-10T11:24:11.573Z,44.60
2018-09-10T11:26:40.069Z,42.60
2018-09-10T11:29:08.506Z,41.70
2018-09-10T11:31:37.065Z,42.80
2018-09-10T11:34:05.546Z,41.40
2018-09-10T11:36:34.953Z,41.60
2018-09-10T11:39:03.790Z,42.10
2018-09-10T11:41:32.246Z,41.60
2018-09-10T11:44:00.705Z,41.00
2018-09-10T11:46:29.171Z,41.30
2018-09-10T11:48:57.622Z,40.90
2018-09-10T11:51:26.141Z,40.10
2018-09-10T11:53:54.549Z,40.00
2018-09-10T11:56:23.025Z,39.50
2018-09-10T11:58:51.466Z,41.60
2018-09-10T12:01:19.883Z,41.70
2018-09-10T12:03:48.337Z,41.30
2018-09-10T12:06:16.789Z,39.30
2018-09-10T12:08:45.235Z,39.70
2018-09-10T12:11:13.688Z,39.20
2018-09-10T12:13:42.197Z,40.40
2018-09-10T12:16:10.607Z,39.80
2018-09-10T12:18:39.059Z,40.40
2018-09-10T12:21:07.493Z,38.30
2018-09-10T12:23:35.960Z,40.00
2018-09-10T12:26:04.517Z,38.90
2018-09-10T12:28:32.929Z,38.90
2018-09-10T12:31:01.380Z,38.80
2018-09-10T12:33:29.866Z,40.30
2018-09-10T12:35:58.335Z,37.40
2018-09-10T12:38:26.749Z,36.20
2018-09-10T12:40:55.213Z,36.20
2018-09-10T12:43:23.637Z,36.20
2018-09-10T12:45:52.077Z,36.70
2018-09-10T12:48:20.586Z,36.40
2018-09-10T12:50:49.101Z,37.40
2018-09-10T12:53:17.561Z,36.80
2018-09-10T12:55:46.037Z,37.40
2018-09-10T12:58:14.544Z,36.30
2018-09-10T13:00:42.965Z,36.00
2018-09-10T13:03:11.418Z,34.90
2018-09-10T13:05:39.846Z,35.60
2018-09-10T13:08:08.331Z,35.60
2018-09-10T13:10:36.829Z,35.90
2018-09-10T13:13:05.519Z,35.90
2018-09-10T13:15:33.925Z,34.20
2018-09-10T13:18:02.554Z,33.90
2018-09-10T13:20:31.009Z,33.70
2018-09-10T13:22:59.451Z,33.30
2018-09-10T13:25:27.934Z,35.30
2018-09-10T13:27:56.400Z,34.20
2018-09-10T13:30:25.085Z,33.60
2018-09-10T13:32:53.544Z,35.30
2018-09-10T13:35:21.971Z,33.40
2018-09-10T13:37:50.421Z,33.70
2018-09-10T13:40:19.081Z,32.90
2018-09-10T13:42:47.545Z,32.30
2018-09-10T13:45:16.077Z,32.00
2018-09-10T13:47:44.726Z,33.20
2018-09-10T13:50:13.370Z,33.90
2018-09-10T13:52:41.782Z,32.90
2018-09-10T13:55:10.278Z,32.90
2018-09-10T13:57:38.737Z,31.10
2018-09-10T14:00:07.254Z,31.10
2018-09-10T14:02:36.699Z,32.10
2018-09-10T14:05:06.097Z,32.50
2018-09-10T14:07:35.608Z,32.00
2018-09-10T14:10:04.089Z,31.60
2018-09-10T14:12:32.558Z,31.80
2018-09-10T14:15:00.981Z,31.10
2018-09-10T14:17:29.480Z,30.60
2018-09-10T14:19:57.925Z,30.80
2018-09-10T14:22:26.381Z,29.10
2018-09-10T14:24:54.850Z,29.20
2018-09-10T14:27:23.372Z,29.60
2018-09-10T14:29:51.752Z,28.70
2018-09-10T14:32:20.190Z,28.70
2018-09-10T14:34:48.691Z,28.90
2018-09-10T14:37:17.144Z,28.80
2018-09-10T14:39:45.646Z,29.40
2018-09-10T14:42:14.073Z,28.60
2018-09-10T14:44:42.609Z,28.60
2018-09-10T14:47:11.053Z,28.70
2018-09-10T14:49:39.553Z,28.40
2018-09-10T14:52:08.006Z,28.90
2018-09-10T14:54:36.621Z,27.60
2018-09-10T14:57:05.085Z,26.10
2018-09-10T14:59:33.489Z,26.40
2018-09-10T15:02:01.935Z,27.60
2018-09-10T15:04:30.347Z,27.00
2018-09-10T15:06:58.863Z,27.80
2018-09-10T15:09:27.339Z,28.20
2018-09-10T15:11:55.747Z,29.60
2018-09-10T15:14:24.214Z,30.50
2018-09-10T15:16:52.640Z,29.70
2018-09-10T15:19:21.133Z,30.90
2018-09-10T15:21:49.605Z,31.90
2018-09-10T15:24:18.034Z,32.30
2018-09-10T15:26:46.500Z,32.80
2018-09-10T15:29:14.957Z,33.00
2018-09-10T15:31:43.394Z,31.80
2018-09-10T15:34:11.801Z,31.50
2018-09-10T15:36:40.237Z,29.00
2018-09-10T15:39:09.414Z,27.80
2018-09-10T15:41:37.884Z,27.60
2018-09-10T15:44:06.521Z,27.00
2018-09-10T15:46:35.797Z,26.80
2018-09-10T15:49:04.563Z,26.90
2018-09-10T15:51:33.629Z,26.80
2018-09-10T15:54:02.625Z,27.20
2018-09-10T15:56:31.247Z,27.70
2018-09-10T15:59:00.138Z,29.10
2018-09-10T16:01:28.644Z,29.40
2018-09-10T16:03:58.329Z,29.90
2018-09-10T16:06:26.894Z,30.50
2018-09-10T16:08:55.369Z,31.30
2018-09-10T16:11:23.805Z,32.20
2018-09-10T16:13:52.318Z,33.10
2018-09-10T16:16:20.785Z,34.20
2018-09-10T16:18:49.237Z,35.00
2018-09-10T16:21:17.656Z,35.50
2018-09-10T16:23:46.112Z,36.40
2018-09-10T16:26:13.800Z,37.00
2018-09-10T16:28:41.537Z,37.60
2018-09-10T16:31:09.237Z,39.20
2018-09-10T16:33:36.977Z,38.70
2018-09-10T16:36:04.797Z,39.00
2018-09-10T16:38:32.520Z,39.70
2018-09-10T16:41:00.322Z,39.60
2018-09-10T16:43:28.876Z,40.10
2018-09-10T16:45:56.652Z,40.60
2018-09-10T16:48:24.469Z,41.20
2018-09-10T16:50:52.220Z,41.40
2018-09-10T16:53:19.910Z,41.80
2018-09-10T16:55:47.693Z,42.20
2018-09-10T16:58:15.480Z,42.50
2018-09-10T17:00:43.328Z,42.70
2018-09-10T17:03:11.133Z,43.20
2018-09-10T17:05:38.860Z,43.00
2018-09-10T17:08:06.648Z,43.00
2018-09-10T17:10:34.373Z,43.50
2018-09-10T17:13:02.160Z,43.20
2018-09-10T17:15:29.965Z,43.60
2018-09-10T17:17:57.665Z,43.70
2018-09-10T17:20:25.423Z,43.90
2018-09-10T17:22:53.289Z,44.20
2018-09-10T17:25:20.985Z,44.20
2018-09-10T17:27:48.748Z,44.40
2018-09-10T17:30:16.571Z,44.70
2018-09-10T17:32:44.278Z,44.80
2018-09-10T17:35:12.005Z,44.70
2018-09-10T17:37:39.837Z,44.80
2018-09-10T17:40:07.556Z,45.00
2018-09-10T17:42:35.468Z,45.00
2018-09-10T17:45:04.244Z,45.00
2018-09-10T17:47:32.004Z,45.20
2018-09-10T17:49:59.765Z,45.10
2018-09-10T17:52:27.485Z,45.10
2018-09-10T17:54:55.311Z,45.30
2018-09-10T17:57:23.137Z,45.90
2018-09-10T17:59:50.939Z,45.60
2018-09-10T18:02:18.712Z,46.60
2018-09-10T18:04:46.441Z,46.00
2018-09-10T18:07:14.178Z,46.40
2018-09-10T18:09:42.932Z,46.70
2018-09-10T18:12:10.636Z,47.00
2018-09-10T18:14:39.432Z,47.40
2018-09-10T18:17:07.247Z,47.40
2018-09-10T18:19:35.003Z,47.50
2018-09-10T18:22:02.733Z,47.60
2018-09-10T18:24:30.508Z,48.00
2018-09-10T18:26:58.299Z,48.00
2018-09-10T18:29:26.062Z,48.20
2018-09-10T18:31:53.800Z,48.20
2018-09-10T18:34:21.653Z,48.50
2018-09-10T18:36:49.417Z,48.50
2018-09-10T18:39:18.248Z,48.60
2018-09-10T18:41:46.076Z,49.50
2018-09-10T18:44:13.869Z,50.20
2018-09-10T18:46:41.605Z,51.20
2018-09-10T18:49:09.369Z,51.90
2018-09-10T18:51:37.160Z,52.20
2018-09-10T18:54:04.868Z,52.20
2018-09-10T18:56:32.679Z,52.30
2018-09-10T18:59:00.397Z,52.80
2018-09-10T19:01:28.277Z,53.50
2018-09-10T19:03:55.959Z,53.80
2018-09-10T19:06:23.759Z,54.00
2018-09-10T19:08:51.473Z,54.20
2018-09-10T19:11:20.988Z,54.40
2018-09-10T19:13:49.001Z,54.60
2018-09-10T19:16:16.729Z,54.90
2018-09-10T19:18:44.548Z,55.30
2018-09-10T19:21:13.277Z,55.90
2018-09-10T19:23:41.036Z,55.80
2018-09-10T19:26:08.825Z,55.70
2018-09-10T19:28:36.549Z,56.80
2018-09-10T19:31:05.272Z,57.10
2018-09-10T19:33:33.498Z,57.30
2018-09-10T19:36:01.221Z,57.30
2018-09-10T19:38:30.216Z,57.40
2018-09-10T19:40:58.988Z,57.40
2018-09-10T19:43:28.414Z,57.70
2018-09-10T19:45:57.416Z,58.10
2018-09-10T19:48:25.280Z,58.40
2018-09-10T19:50:53.027Z,58.60
2018-09-10T19:53:20.689Z,59.00
2018-09-10T19:55:48.395Z,59.40
2018-09-10T19:58:16.451Z,59.70
2018-09-10T20:00:44.164Z,61.10
2018-09-10T20:03:11.897Z,60.60
2018-09-10T20:05:39.603Z,60.70
2018-09-10T20:08:07.401Z,61.40
2018-09-10T20:10:35.093Z,61.50
2018-09-10T20:13:02.901Z,61.90
2018-09-10T20:15:30.693Z,62.00
2018-09-10T20:17:58.393Z,62.20
2018-09-10T20:20:26.192Z,62.40
2018-09-10T20:22:54.004Z,62.70
2018-09-10T20:25:21.704Z,63.20
2018-09-10T20:27:49.445Z,63.50
2018-09-10T20:30:17.150Z,63.80
2018-09-10T20:32:44.952Z,64.00
2018-09-10T20:35:12.692Z,64.20
2018-09-10T20:37:40.398Z,65.10
2018-09-10T20:40:08.101Z,64.30
2018-09-10T20:42:35.860Z,64.30
2018-09-10T20:45:03.727Z,64.70
2018-09-10T20:47:31.496Z,64.90
2018-09-10T20:49:59.268Z,65.40
2018-09-10T20:52:27.022Z,65.50
2018-09-10T20:54:54.862Z,65.40
2018-09-10T20:57:22.624Z,66.60
2018-09-10T20:59:50.413Z,65.90
2018-09-10T21:02:18.189Z,66.00
2018-09-10T21:04:45.953Z,66.30
2018-09-10T21:07:13.717Z,66.60
2018-09-10T21:09:41.449Z,66.50
2018-09-10T21:12:09.253Z,66.70
2018-09-10T21:14:37.001Z,66.90
2018-09-10T21:17:04.808Z,67.10
2018-09-10T21:19:32.533Z,68.00
2018-09-10T21:22:00.335Z,67.30
2018-09-10T21:24:28.041Z,68.10
2018-09-10T21:26:55.874Z,67.60
2018-09-10T21:29:23.596Z,67.90
2018-09-10T21:31:51.328Z,67.80
2018-09-10T21:34:19.132Z,68.20
2018-09-10T21:36:46.856Z,68.20
2018-09-10T21:39:14.676Z,68.40
2018-09-10T21:41:42.376Z,68.50
2018-09-10T21:44:10.580Z,68.30
2018-09-10T21:46:38.388Z,68.30
2018-09-10T21:49:06.089Z,68.50
2018-09-10T21:51:33.920Z,69.00
2018-09-10T21:54:01.653Z,69.20
2018-09-10T21:56:29.393Z,69.40
2018-09-10T21:58:57.213Z,69.80
2018-09-10T22:01:24.976Z,70.00
2018-09-10T22:03:53.732Z,70.20
2018-09-10T22:06:21.488Z,70.40
2018-09-10T22:08:49.398Z,70.50
2018-09-10T22:11:18.121Z,70.60
2018-09-10T22:13:45.924Z,70.80
2018-09-10T22:16:13.692Z,70.90
2018-09-10T22:18:42.445Z,70.90
2018-09-10T22:21:10.268Z,71.00
2018-09-10T22:23:38.001Z,71.10
2018-09-10T22:26:05.921Z,71.10
2018-09-10T22:28:33.615Z,71.20
2018-09-10T22:31:01.409Z,71.50
2018-09-10T22:33:29.171Z,71.70
2018-09-10T22:35:56.957Z,71.70
2018-09-10T22:38:24.688Z,71.90
2018-09-10T22:40:52.461Z,72.30
2018-09-10T22:43:20.213Z,72.60
2018-09-10T22:45:49.008Z,72.70
2018-09-10T22:48:16.829Z,72.80
2018-09-10T22:50:44.627Z,73.20
2018-09-10T22:53:12.437Z,73.20
2018-09-10T22:55:40.174Z,73.40
2018-09-10T22:58:07.933Z,73.60
2018-09-10T23:00:35.701Z,73.60
2018-09-10T23:03:03.471Z,73.70
2018-09-10T23:05:31.201Z,73.90
2018-09-10T23:07:58.992Z,74.40
2018-09-10T23:10:26.754Z,74.70
2018-09-10T23:12:54.568Z,74.70
2018-09-10T23:15:22.272Z,75.00
2018-09-10T23:17:50.041Z,75.10
2018-09-10T23:20:17.846Z,75.30
2018-09-10T23:22:45.568Z,75.40
2018-09-10T23:25:13.376Z,75.40
2018-09-10T23:27:41.073Z,75.30
2018-09-10T23:30:08.976Z,75.50
2018-09-10T23:32:36.849Z,74.40
2018-09-10T23:35:04.640Z,73.90
2018-09-10T23:37:32.412Z,72.90
2018-09-10T23:40:00.108Z,72.40
2018-09-10T23:42:27.898Z,72.30
2018-09-10T23:44:55.665Z,71.80
2018-09-10T23:47:23.430Z,70.70
2018-09-10T23:49:51.225Z,69.70
2018-09-10T23:52:19.030Z,68.50
2018-09-10T23:54:46.856Z,67.90
2018-09-10T23:57:14.585Z,67.20
2018-09-10T23:59:42.404Z,66.70
